createdAt,value
2018-05-27T00:00:58.793Z,14.30
2018-05-27T00:01:58.832Z,13.80
2018-05-27T00:02:58.869Z,14.00
2018-05-27T00:03:58.908Z,13.80
2018-05-27T00:04:58.946Z,13.30
2018-05-27T00:05:58.983Z,13.80
2018-05-27T00:06:59.019Z,13.30
2018-05-27T00:07:59.061Z,13.60
2018-05-27T00:08:59.094Z,14.30
2018-05-27T00:09:59.135Z,13.70
2018-05-27T00:10:59.172Z,13.70
2018-05-27T00:11:59.209Z,13.50
2018-05-27T00:12:59.246Z,14.50
2018-05-27T00:13:59.335Z,14.10
2018-05-27T00:14:59.325Z,14.50
2018-05-27T00:15:59.360Z,14.70
2018-05-27T00:16:59.395Z,14.60
2018-05-27T00:17:59.434Z,15.10
2018-05-27T00:18:59.472Z,15.10
2018-05-27T00:19:59.507Z,14.80
2018-05-27T00:20:59.545Z,15.00
2018-05-27T00:21:59.591Z,14.80
2018-05-27T00:22:59.621Z,14.00
2018-05-27T00:23:59.658Z,14.40
2018-05-27T00:24:59.694Z,14.90
2018-05-27T00:25:59.732Z,14.90
2018-05-27T00:26:59.771Z,15.50
2018-05-27T00:27:59.806Z,15.40
2018-05-27T00:28:59.843Z,14.90
2018-05-27T00:29:59.882Z,14.30
2018-05-27T00:30:59.919Z,13.60
2018-05-27T00:31:59.955Z,13.70
2018-05-27T00:32:59.992Z,15.20
2018-05-27T00:34:00.032Z,13.90
2018-05-27T00:35:00.068Z,13.60
2018-05-27T00:36:00.105Z,13.10
2018-05-27T00:37:00.143Z,12.20
2018-05-27T00:38:00.189Z,13.20
2018-05-27T00:39:00.217Z,12.90
2018-05-27T00:40:00.257Z,13.10
2018-05-27T00:41:00.292Z,13.30
2018-05-27T00:42:00.329Z,13.60
2018-05-27T00:43:00.367Z,13.70
2018-05-27T00:44:00.403Z,13.30
2018-05-27T00:45:00.440Z,14.10
2018-05-27T00:46:00.476Z,14.40
2018-05-27T00:47:00.514Z,14.10
2018-05-27T00:48:00.555Z,13.40
2018-05-27T00:49:00.591Z,14.50
2018-05-27T00:50:00.631Z,14.40
2018-05-27T00:51:00.665Z,14.20
2018-05-27T00:52:00.701Z,13.80
2018-05-27T00:53:00.738Z,14.20
2018-05-27T00:54:00.776Z,14.10
2018-05-27T00:55:00.812Z,14.70
2018-05-27T00:56:00.851Z,14.70
2018-05-27T00:57:00.890Z,15.00
2018-05-27T00:58:00.923Z,15.10
2018-05-27T00:59:00.970Z,14.60
2018-05-27T01:00:01.009Z,15.80
2018-05-27T01:01:01.034Z,15.60
2018-05-27T01:02:01.073Z,15.10
2018-05-27T01:03:01.108Z,15.40
2018-05-27T01:04:01.154Z,15.40
2018-05-27T01:05:01.188Z,16.40
2018-05-27T01:06:01.219Z,15.50
2018-05-27T01:07:01.259Z,16.20
2018-05-27T01:08:01.295Z,16.30
2018-05-27T01:09:01.330Z,16.50
2018-05-27T01:10:01.368Z,16.20
2018-05-27T01:11:01.407Z,16.20
2018-05-27T01:12:01.444Z,16.50
2018-05-27T01:13:01.480Z,16.50
2018-05-27T01:14:01.516Z,16.00
2018-05-27T01:15:01.557Z,16.20
2018-05-27T01:16:01.593Z,16.40
2018-05-27T01:17:01.628Z,15.20
2018-05-27T01:18:01.671Z,15.30
2018-05-27T01:19:01.718Z,15.20
2018-05-27T01:20:01.740Z,14.10
2018-05-27T01:21:01.777Z,14.90
2018-05-27T01:22:01.915Z,15.20
2018-05-27T01:23:01.850Z,15.60
2018-05-27T01:24:01.888Z,15.60
2018-05-27T01:25:01.934Z,15.40
2018-05-27T01:26:01.963Z,15.30
2018-05-27T01:27:01.999Z,16.20
2018-05-27T01:28:02.036Z,15.50
2018-05-27T01:29:02.074Z,15.60
2018-05-27T01:30:02.108Z,15.60
2018-05-27T01:31:02.149Z,15.20
2018-05-27T01:32:02.186Z,16.00
2018-05-27T01:33:02.222Z,15.10
2018-05-27T01:34:02.265Z,15.80
2018-05-27T01:35:02.294Z,14.90
2018-05-27T01:36:02.333Z,15.20
2018-05-27T01:37:02.367Z,15.10
2018-05-27T01:38:02.407Z,14.40
2018-05-27T01:39:02.441Z,14.20
2018-05-27T01:40:02.479Z,14.90
2018-05-27T01:41:02.520Z,15.40
2018-05-27T01:42:02.553Z,15.20
2018-05-27T01:43:02.588Z,14.90
2018-05-27T01:44:02.627Z,15.00
2018-05-27T01:45:02.663Z,15.20
2018-05-27T01:46:02.700Z,15.20
2018-05-27T01:47:02.738Z,16.00
2018-05-27T01:48:02.780Z,15.50
2018-05-27T01:49:02.811Z,15.10
2018-05-27T01:50:02.850Z,15.30
2018-05-27T01:51:02.883Z,15.50
2018-05-27T01:52:02.922Z,15.60
2018-05-27T01:54:02.992Z,14.80
2018-05-27T01:55:03.041Z,15.60
2018-05-27T01:56:03.069Z,15.90
2018-05-27T01:57:03.104Z,15.50
2018-05-27T01:58:03.139Z,15.50
2018-05-27T01:59:03.189Z,15.40
2018-05-27T02:00:03.215Z,15.80
2018-05-27T02:01:03.249Z,16.20
2018-05-27T02:02:03.290Z,16.50
2018-05-27T02:03:03.324Z,16.60
2018-05-27T02:04:03.361Z,16.70
2018-05-27T02:05:03.396Z,16.00
2018-05-27T02:06:03.433Z,16.10
2018-05-27T02:07:03.475Z,15.80
2018-05-27T02:08:03.507Z,16.80
2018-05-27T02:09:03.693Z,16.80
2018-05-27T02:10:03.582Z,15.80
2018-05-27T02:11:03.619Z,15.50
2018-05-27T02:12:03.655Z,14.90
2018-05-27T02:13:03.691Z,15.00
2018-05-27T02:14:03.728Z,14.80
2018-05-27T02:15:03.780Z,15.30
2018-05-27T02:16:03.802Z,15.20
2018-05-27T02:17:03.840Z,14.70
2018-05-27T02:18:03.882Z,15.30
2018-05-27T02:19:03.912Z,15.20
2018-05-27T02:20:03.948Z,15.40
2018-05-27T02:21:03.986Z,15.50
2018-05-27T02:22:04.030Z,15.10
2018-05-27T02:23:04.062Z,15.10
2018-05-27T02:24:04.097Z,14.20
2018-05-27T02:25:04.131Z,14.80
2018-05-27T02:26:04.168Z,14.30
2018-05-27T02:27:04.204Z,14.60
2018-05-27T02:28:04.244Z,14.30
2018-05-27T02:29:04.278Z,13.80
2018-05-27T02:30:04.316Z,13.90
2018-05-27T02:31:04.351Z,13.50
2018-05-27T02:32:04.388Z,14.60
2018-05-27T02:33:04.431Z,14.80
2018-05-27T02:34:04.469Z,15.70
2018-05-27T02:35:04.497Z,15.10
2018-05-27T02:36:04.534Z,14.00
2018-05-27T02:37:04.572Z,13.80
2018-05-27T02:38:04.608Z,14.60
2018-05-27T02:39:04.645Z,14.50
2018-05-27T02:40:04.691Z,14.20
2018-05-27T02:41:04.722Z,14.20
2018-05-27T02:42:04.762Z,14.80
2018-05-27T02:43:04.792Z,14.50
2018-05-27T02:44:04.841Z,15.20
2018-05-27T02:45:04.864Z,15.60
2018-05-27T02:47:04.939Z,15.40
2018-05-27T02:48:04.976Z,16.00
2018-05-27T02:49:05.011Z,15.40
2018-05-27T02:50:05.048Z,16.00
2018-05-27T02:51:05.084Z,15.60
2018-05-27T02:52:05.122Z,15.70
2018-05-27T02:53:05.157Z,15.60
2018-05-27T02:54:05.194Z,16.00
2018-05-27T02:55:05.235Z,15.70
2018-05-27T02:56:05.268Z,15.10
2018-05-27T02:57:05.303Z,15.40
2018-05-27T02:58:05.341Z,15.50
2018-05-27T02:59:05.381Z,15.20
2018-05-27T03:00:05.416Z,15.70
2018-05-27T03:01:05.451Z,15.30
2018-05-27T03:02:05.488Z,16.70
2018-05-27T03:03:05.524Z,16.50
2018-05-27T03:04:05.559Z,15.40
2018-05-27T03:05:05.596Z,14.90
2018-05-27T03:06:05.633Z,15.30
2018-05-27T03:07:05.682Z,15.80
2018-05-27T03:08:05.707Z,15.80
2018-05-27T03:09:05.747Z,15.40
2018-05-27T03:10:05.778Z,16.80
2018-05-27T03:11:05.818Z,16.20
2018-05-27T03:12:05.856Z,15.80
2018-05-27T03:13:05.886Z,15.90
2018-05-27T03:14:05.923Z,15.90
2018-05-27T03:15:05.960Z,15.20
2018-05-27T03:16:06.000Z,15.80
2018-05-27T03:17:06.036Z,15.40
2018-05-27T03:18:06.072Z,15.90
2018-05-27T03:19:06.110Z,15.30
2018-05-27T03:20:06.144Z,15.30
2018-05-27T03:21:06.179Z,15.00
2018-05-27T03:22:06.216Z,15.10
2018-05-27T03:23:06.253Z,15.50
2018-05-27T03:24:06.291Z,15.20
2018-05-27T03:25:06.329Z,14.90
2018-05-27T03:26:06.363Z,15.00
2018-05-27T03:27:06.397Z,15.20
2018-05-27T03:29:06.471Z,14.70
2018-05-27T03:30:06.508Z,15.10
2018-05-27T03:31:06.544Z,14.70
2018-05-27T03:32:06.584Z,15.60
2018-05-27T03:33:06.620Z,15.00
2018-05-27T03:34:06.653Z,15.60
2018-05-27T03:35:06.696Z,15.70
2018-05-27T03:36:06.726Z,15.00
2018-05-27T03:37:06.764Z,14.50
2018-05-27T03:38:06.799Z,14.80
2018-05-27T03:39:06.837Z,14.90
2018-05-27T03:40:06.873Z,15.80
2018-05-27T03:41:06.909Z,15.50
2018-05-27T03:42:06.944Z,16.60
2018-05-27T03:43:06.981Z,15.80
2018-05-27T03:44:07.018Z,15.90
2018-05-27T03:45:07.053Z,16.00
2018-05-27T03:46:07.090Z,16.40
2018-05-27T03:47:07.126Z,15.50
2018-05-27T03:48:07.164Z,15.50
2018-05-27T03:49:07.199Z,15.80
2018-05-27T03:50:07.238Z,16.10
2018-05-27T03:51:07.282Z,15.40
2018-05-27T03:54:07.384Z,15.40
2018-05-27T03:55:07.420Z,15.50
2018-05-27T03:56:07.457Z,14.80
2018-05-27T03:57:07.491Z,15.20
2018-05-27T03:58:07.529Z,15.10
2018-05-27T03:59:07.619Z,15.90
2018-05-27T04:00:07.605Z,15.20
2018-05-27T04:01:07.636Z,14.70
2018-05-27T04:02:07.676Z,15.10
2018-05-27T04:03:07.710Z,14.80
2018-05-27T04:04:07.748Z,13.80
2018-05-27T04:05:07.786Z,14.20
2018-05-27T04:06:07.820Z,14.50
2018-05-27T04:07:07.858Z,15.70
2018-05-27T04:08:07.896Z,14.90
2018-05-27T04:09:07.933Z,14.60
2018-05-27T04:10:07.966Z,15.80
2018-05-27T04:11:08.003Z,15.70
2018-05-27T04:12:08.040Z,15.00
2018-05-27T04:13:08.075Z,15.00
2018-05-27T04:14:08.111Z,15.10
2018-05-27T04:15:08.148Z,14.70
2018-05-27T04:16:08.185Z,15.40
2018-05-27T04:17:08.222Z,15.40
2018-05-27T04:18:08.309Z,14.70
2018-05-27T04:19:08.309Z,14.90
2018-05-27T04:20:08.331Z,15.00
2018-05-27T04:21:08.367Z,14.80
2018-05-27T04:22:08.404Z,14.50
2018-05-27T04:23:08.444Z,14.70
2018-05-27T04:24:08.479Z,14.90
2018-05-27T04:25:08.513Z,13.90
2018-05-27T04:26:08.557Z,13.30
2018-05-27T04:27:08.588Z,13.20
2018-05-27T04:28:08.628Z,13.40
2018-05-27T04:29:08.659Z,13.40
2018-05-27T04:30:08.697Z,13.60
2018-05-27T04:31:08.734Z,13.20
2018-05-27T04:32:08.771Z,13.50
2018-05-27T04:33:08.807Z,13.50
2018-05-27T04:34:08.844Z,13.20
2018-05-27T04:35:08.883Z,12.70
2018-05-27T04:36:08.919Z,13.60
2018-05-27T04:37:08.954Z,13.10
2018-05-27T04:38:08.990Z,12.40
2018-05-27T04:39:09.032Z,13.50
2018-05-27T04:40:09.065Z,13.00
2018-05-27T04:41:09.104Z,12.90
2018-05-27T04:42:09.139Z,13.50
2018-05-27T04:43:09.178Z,13.60
2018-05-27T04:44:09.216Z,13.30
2018-05-27T04:45:09.251Z,15.90
2018-05-27T04:46:09.283Z,12.90
2018-05-27T04:47:09.322Z,12.60
2018-05-27T04:48:09.374Z,13.30
2018-05-27T04:49:09.410Z,13.20
2018-05-27T04:50:09.436Z,13.40
2018-05-27T04:51:09.469Z,12.80
2018-05-27T04:52:09.509Z,12.80
2018-05-27T04:53:09.548Z,12.60
2018-05-27T04:54:09.580Z,13.10
2018-05-27T04:55:09.617Z,13.40
2018-05-27T04:56:09.656Z,13.40
2018-05-27T04:57:09.693Z,13.20
2018-05-27T04:58:09.731Z,14.40
2018-05-27T05:00:09.804Z,12.90
2018-05-27T05:01:09.844Z,12.90
2018-05-27T05:02:09.877Z,13.20
2018-05-27T05:03:09.915Z,13.60
2018-05-27T05:04:09.952Z,12.50
2018-05-27T05:05:09.991Z,12.60
2018-05-27T05:06:10.028Z,12.10
2018-05-27T05:07:10.063Z,12.80
2018-05-27T05:08:10.103Z,12.70
2018-05-27T05:09:10.139Z,12.50
2018-05-27T05:10:10.178Z,12.40
2018-05-27T05:11:10.216Z,12.50
2018-05-27T05:12:10.255Z,12.40
2018-05-27T05:13:10.288Z,13.10
2018-05-27T05:14:10.325Z,12.40
2018-05-27T05:15:10.364Z,12.90
2018-05-27T05:16:10.407Z,12.60
2018-05-27T05:17:10.440Z,12.30
2018-05-27T05:18:10.474Z,12.60
2018-05-27T05:19:10.512Z,12.90
2018-05-27T05:20:10.556Z,12.60
2018-05-27T05:21:10.587Z,12.00
2018-05-27T05:22:10.665Z,12.50
2018-05-27T05:23:10.663Z,13.00
2018-05-27T05:24:10.702Z,12.80
2018-05-27T05:25:10.737Z,13.00
2018-05-27T05:26:10.775Z,12.60
2018-05-27T05:27:10.818Z,12.50
2018-05-27T05:28:10.852Z,12.20
2018-05-27T05:29:10.890Z,12.10
2018-05-27T05:30:10.928Z,12.20
2018-05-27T05:31:10.970Z,12.40
2018-05-27T05:32:11.003Z,12.00
2018-05-27T05:33:11.040Z,11.50
2018-05-27T05:34:11.080Z,12.40
2018-05-27T05:35:11.120Z,12.30
2018-05-27T05:36:11.158Z,12.30
2018-05-27T05:37:11.197Z,11.80
2018-05-27T05:38:11.246Z,12.10
2018-05-27T05:39:11.269Z,12.70
2018-05-27T05:40:11.316Z,13.10
2018-05-27T05:41:11.347Z,12.10
2018-05-27T05:42:11.387Z,11.90
2018-05-27T05:43:11.425Z,11.00
2018-05-27T05:44:11.463Z,11.60
2018-05-27T05:45:11.501Z,11.40
2018-05-27T05:46:11.540Z,11.70
2018-05-27T05:47:11.582Z,11.30
2018-05-27T05:48:11.625Z,11.80
2018-05-27T05:49:11.723Z,11.40
2018-05-27T05:50:11.698Z,12.50
2018-05-27T05:51:11.734Z,10.80
2018-05-27T05:52:11.774Z,11.20
2018-05-27T05:53:11.810Z,9.70
2018-05-27T05:54:11.856Z,10.60
2018-05-27T05:55:11.887Z,10.20
2018-05-27T05:56:11.927Z,10.90
2018-05-27T05:57:11.964Z,10.90
2018-05-27T05:58:12.058Z,11.30
2018-05-27T05:59:12.044Z,10.10
2018-05-27T06:00:12.083Z,10.50
2018-05-27T06:01:12.159Z,9.90
2018-05-27T06:02:12.160Z,10.10
2018-05-27T06:03:12.198Z,10.30
2018-05-27T06:04:12.238Z,10.10
2018-05-27T06:05:12.276Z,9.50
2018-05-27T06:06:12.316Z,9.90
2018-05-27T06:07:12.359Z,10.80
2018-05-27T06:08:12.396Z,9.10
2018-05-27T06:09:12.437Z,9.80
2018-05-27T06:10:12.477Z,9.30
2018-05-27T06:11:12.517Z,9.20
2018-05-27T06:12:12.569Z,9.80
2018-05-27T06:13:12.595Z,9.70
2018-05-27T06:14:12.637Z,9.30
2018-05-27T06:15:12.674Z,8.80
2018-05-27T06:16:12.714Z,9.90
2018-05-27T06:17:12.754Z,9.30
2018-05-27T06:18:12.795Z,9.20
2018-05-27T06:19:12.835Z,8.90
2018-05-27T06:20:12.873Z,9.20
2018-05-27T06:21:12.921Z,9.10
2018-05-27T06:22:12.953Z,9.20
2018-05-27T06:23:12.996Z,8.80
2018-05-27T06:24:13.036Z,8.90
2018-05-27T06:25:13.085Z,9.10
2018-05-27T06:26:13.130Z,10.00
2018-05-27T06:27:13.156Z,9.50
2018-05-27T06:28:13.196Z,9.10
2018-05-27T06:29:13.235Z,9.40
2018-05-27T06:30:13.276Z,8.80
2018-05-27T06:31:13.317Z,10.70
2018-05-27T06:32:13.358Z,9.40
2018-05-27T06:33:13.399Z,8.90
2018-05-27T06:34:13.441Z,8.80
2018-05-27T06:35:13.483Z,11.30
2018-05-27T06:36:13.531Z,10.00
2018-05-27T06:37:13.563Z,10.90
2018-05-27T06:38:13.605Z,10.60
2018-05-27T06:39:13.646Z,10.80
2018-05-27T06:40:13.688Z,11.20
2018-05-27T06:41:13.728Z,11.00
2018-05-27T06:42:13.769Z,11.50
2018-05-27T06:43:13.821Z,11.40
2018-05-27T06:44:13.858Z,11.70
2018-05-27T06:45:13.893Z,11.20
2018-05-27T06:46:13.939Z,12.60
2018-05-27T06:47:13.976Z,11.80
2018-05-27T06:48:14.018Z,14.60
2018-05-27T06:49:14.058Z,11.10
2018-05-27T06:50:14.099Z,11.20
2018-05-27T06:51:14.149Z,11.40
2018-05-27T06:52:14.185Z,11.90
2018-05-27T06:53:14.223Z,11.00
2018-05-27T06:54:14.266Z,12.10
2018-05-27T06:55:14.310Z,11.00
2018-05-27T06:56:14.348Z,11.40
2018-05-27T06:57:14.390Z,11.00
2018-05-27T06:58:14.432Z,10.70
2018-05-27T06:59:14.486Z,10.60
2018-05-27T07:00:14.518Z,11.10
2018-05-27T07:01:14.556Z,10.70
2018-05-27T07:02:14.600Z,10.10
2018-05-27T07:03:14.641Z,8.10
2018-05-27T07:04:14.681Z,10.20
2018-05-27T07:05:14.723Z,9.20
2018-05-27T07:06:14.764Z,9.20
2018-05-27T07:07:14.807Z,9.20
2018-05-27T07:08:14.848Z,8.70
2018-05-27T07:09:14.911Z,8.80
2018-05-27T07:10:14.932Z,9.30
2018-05-27T07:11:14.979Z,8.70
2018-05-27T07:12:15.015Z,9.10
2018-05-27T07:13:15.057Z,8.80
2018-05-27T07:14:15.098Z,9.20
2018-05-27T07:15:15.139Z,9.70
2018-05-27T07:16:15.181Z,8.70
2018-05-27T07:17:15.226Z,8.80
2018-05-27T07:18:15.268Z,8.40
2018-05-27T07:19:15.305Z,7.50
2018-05-27T07:20:15.348Z,9.30
2018-05-27T07:21:15.398Z,8.20
2018-05-27T07:22:15.434Z,7.70
2018-05-27T07:23:15.473Z,8.20
2018-05-27T07:25:15.607Z,7.80
2018-05-27T07:26:15.602Z,7.80
2018-05-27T07:27:15.640Z,7.80
2018-05-27T07:28:15.755Z,7.80
2018-05-27T07:29:15.721Z,8.00
2018-05-27T07:30:15.766Z,8.00
2018-05-27T07:31:15.806Z,8.50
2018-05-27T07:32:15.855Z,7.90
2018-05-27T07:33:15.896Z,8.40
2018-05-27T07:34:15.933Z,8.30
2018-05-27T07:35:15.974Z,7.80
2018-05-27T07:36:16.016Z,8.40
2018-05-27T07:37:16.057Z,8.10
2018-05-27T07:38:16.100Z,7.20
2018-05-27T07:39:16.142Z,8.30
2018-05-27T07:40:16.184Z,7.70
2018-05-27T07:41:16.226Z,7.30
2018-05-27T07:42:16.270Z,7.70
2018-05-27T07:43:16.312Z,7.50
2018-05-27T07:44:16.353Z,8.40
2018-05-27T07:45:16.395Z,7.70
2018-05-27T07:46:16.447Z,8.00
2018-05-27T07:47:16.478Z,8.10
2018-05-27T07:48:16.526Z,8.80
2018-05-27T07:49:16.567Z,7.80
2018-05-27T07:50:16.604Z,7.70
2018-05-27T07:51:16.652Z,8.90
2018-05-27T07:52:16.691Z,7.60
2018-05-27T07:53:16.756Z,7.40
2018-05-27T07:54:16.775Z,7.80
2018-05-27T07:55:16.815Z,7.80
2018-05-27T07:56:16.858Z,7.30
2018-05-27T07:57:16.903Z,7.80
2018-05-27T07:58:17.036Z,7.80
2018-05-27T07:59:16.987Z,8.90
2018-05-27T08:00:17.032Z,7.40
2018-05-27T08:01:17.071Z,7.50
2018-05-27T08:02:17.115Z,7.80
2018-05-27T08:03:17.162Z,8.40
2018-05-27T08:04:17.205Z,7.40
2018-05-27T08:05:17.242Z,8.30
2018-05-27T08:06:17.293Z,7.80
2018-05-27T08:07:17.329Z,7.60
2018-05-27T08:08:17.375Z,8.30
2018-05-27T08:09:17.438Z,8.30
2018-05-27T08:10:17.463Z,7.50
2018-05-27T08:11:17.507Z,7.20
2018-05-27T08:12:17.546Z,7.60
2018-05-27T08:13:17.588Z,7.30
2018-05-27T08:14:17.633Z,7.60
2018-05-27T08:15:17.677Z,7.40
2018-05-27T08:16:17.717Z,7.70
2018-05-27T08:17:17.759Z,8.60
2018-05-27T08:18:17.803Z,6.90
2018-05-27T08:19:17.846Z,7.30
2018-05-27T08:20:17.897Z,8.40
2018-05-27T08:21:17.938Z,7.80
2018-05-27T08:22:17.991Z,7.10
2018-05-27T08:23:18.025Z,7.30
2018-05-27T08:24:18.068Z,6.90
2018-05-27T08:25:18.109Z,8.60
2018-05-27T08:26:18.154Z,7.00
2018-05-27T08:27:18.198Z,7.00
2018-05-27T08:28:18.243Z,6.80
2018-05-27T08:29:18.340Z,7.20
2018-05-27T08:30:18.332Z,9.40
2018-05-27T08:31:18.383Z,6.10
2018-05-27T08:32:18.418Z,6.80
2018-05-27T08:33:18.467Z,6.70
2018-05-27T08:34:18.508Z,6.00
2018-05-27T08:35:18.556Z,8.10
2018-05-27T08:36:18.597Z,6.30
2018-05-27T08:37:18.653Z,6.40
2018-05-27T08:38:18.689Z,7.20
2018-05-27T08:39:18.732Z,6.90
2018-05-27T08:40:18.779Z,6.30
2018-05-27T08:41:18.821Z,6.70
2018-05-27T08:42:18.866Z,7.10
2018-05-27T08:43:18.910Z,7.00
2018-05-27T08:44:18.962Z,7.50
2018-05-27T08:45:19.001Z,7.20
2018-05-27T08:46:19.045Z,7.10
2018-05-27T08:47:19.091Z,6.90
2018-05-27T08:48:19.143Z,8.20
2018-05-27T08:49:19.179Z,8.00
2018-05-27T08:50:19.224Z,7.60
2018-05-27T08:51:19.270Z,9.00
2018-05-27T08:52:19.333Z,6.90
2018-05-27T08:53:19.372Z,7.10
2018-05-27T08:54:19.408Z,6.90
2018-05-27T08:55:19.469Z,7.70
2018-05-27T08:56:19.492Z,8.10
2018-05-27T08:57:19.580Z,7.20
2018-05-27T08:58:19.584Z,7.20
2018-05-27T08:59:19.629Z,6.90
2018-05-27T09:00:19.695Z,7.10
2018-05-27T09:01:19.737Z,6.80
2018-05-27T09:02:19.768Z,7.40
2018-05-27T09:03:19.809Z,7.30
2018-05-27T09:04:19.865Z,7.60
2018-05-27T09:05:19.899Z,8.60
2018-05-27T09:06:20.072Z,6.80
2018-05-27T09:07:19.991Z,6.90
2018-05-27T09:08:20.046Z,7.20
2018-05-27T09:09:20.082Z,7.10
2018-05-27T09:10:20.123Z,7.90
2018-05-27T09:11:20.167Z,7.80
2018-05-27T09:12:20.212Z,6.70
2018-05-27T09:13:20.259Z,6.80
2018-05-27T09:14:20.301Z,7.20
2018-05-27T09:15:20.416Z,7.60
2018-05-27T09:16:20.402Z,8.20
2018-05-27T09:17:20.437Z,7.90
2018-05-27T09:18:20.484Z,10.20
2018-05-27T09:19:20.525Z,7.20
2018-05-27T09:20:20.579Z,7.30
2018-05-27T09:21:20.615Z,7.40
2018-05-27T09:23:20.706Z,10.10
2018-05-27T09:24:20.759Z,8.80
2018-05-27T09:25:20.796Z,7.70
2018-05-27T09:26:20.840Z,8.20
2018-05-27T09:27:20.884Z,8.10
2018-05-27T09:29:20.977Z,8.90
2018-05-27T09:30:21.018Z,8.10
2018-05-27T09:31:21.070Z,7.80
2018-05-27T09:32:21.108Z,8.20
2018-05-27T09:33:21.156Z,7.70
2018-05-27T09:34:21.197Z,8.00
2018-05-27T09:35:21.243Z,7.30
2018-05-27T09:36:21.286Z,7.70
2018-05-27T09:37:21.337Z,7.90
2018-05-27T09:38:21.377Z,7.60
2018-05-27T09:39:21.418Z,7.50
2018-05-27T09:40:21.463Z,8.40
2018-05-27T09:41:21.506Z,7.80
2018-05-27T09:42:21.551Z,7.40
2018-05-27T09:43:21.596Z,7.20
2018-05-27T09:44:21.642Z,7.50
2018-05-27T09:45:21.708Z,7.60
2018-05-27T09:46:21.729Z,7.30
2018-05-27T09:47:21.774Z,9.00
2018-05-27T09:48:21.824Z,7.90
2018-05-27T09:50:21.924Z,8.30
2018-05-27T09:51:21.971Z,7.70
2018-05-27T09:52:21.998Z,10.70
2018-05-27T09:53:22.041Z,7.30
2018-05-27T09:54:22.088Z,8.30
2018-05-27T09:55:22.137Z,8.30
2018-05-27T09:56:22.181Z,8.00
2018-05-27T09:57:22.219Z,8.60
2018-05-27T09:58:22.268Z,8.10
2018-05-27T09:59:22.327Z,8.00
2018-05-27T10:00:22.359Z,7.90
2018-05-27T10:01:22.399Z,8.20
2018-05-27T10:02:22.446Z,8.40
2018-05-27T10:03:22.537Z,7.80
2018-05-27T10:04:22.675Z,7.80
2018-05-27T10:05:22.576Z,7.90
2018-05-27T10:06:22.620Z,7.50
2018-05-27T10:07:22.687Z,9.00
2018-05-27T10:08:22.719Z,7.70
2018-05-27T10:09:22.754Z,8.20
2018-05-27T10:10:22.819Z,9.70
2018-05-27T10:11:22.849Z,8.70
2018-05-27T10:12:22.897Z,7.50
2018-05-27T10:13:22.934Z,7.30
2018-05-27T10:14:22.980Z,7.60
2018-05-27T10:16:23.171Z,8.00
2018-05-27T10:17:23.113Z,8.40
2018-05-27T10:18:23.169Z,7.30
2018-05-27T10:19:23.204Z,7.60
2018-05-27T10:21:23.312Z,8.00
2018-05-27T10:22:23.353Z,7.80
2018-05-27T10:23:23.387Z,7.90
2018-05-27T10:24:23.437Z,7.80
2018-05-27T10:25:23.477Z,7.60
2018-05-27T10:26:23.531Z,7.30
2018-05-27T10:27:23.577Z,8.60
2018-05-27T10:28:23.611Z,6.70
2018-05-27T10:29:23.669Z,6.70
2018-05-27T10:30:23.701Z,7.50
2018-05-27T10:31:23.748Z,7.40
2018-05-27T10:32:23.800Z,7.30
2018-05-27T10:33:23.837Z,8.40
2018-05-27T10:34:23.884Z,7.40
2018-05-27T10:35:23.939Z,6.70
2018-05-27T10:36:23.974Z,7.10
2018-05-27T10:37:24.025Z,7.50
2018-05-27T10:38:24.063Z,7.80
2018-05-27T10:39:24.110Z,10.30
2018-05-27T10:40:24.156Z,8.20
2018-05-27T10:41:24.197Z,7.10
2018-05-27T10:42:24.244Z,7.50
2018-05-27T10:43:24.290Z,7.40
2018-05-27T10:44:24.338Z,7.20
2018-05-27T10:45:24.386Z,8.00
2018-05-27T10:46:24.426Z,7.30
2018-05-27T10:47:24.508Z,7.10
2018-05-27T10:48:24.523Z,7.20
2018-05-27T10:49:24.559Z,7.20
2018-05-27T10:50:24.604Z,7.10
2018-05-27T10:51:24.649Z,7.60
2018-05-27T10:52:24.697Z,6.90
2018-05-27T10:53:24.738Z,7.40
2018-05-27T10:54:24.785Z,7.40
2018-05-27T10:55:24.837Z,6.70
2018-05-27T10:56:25.028Z,7.20
2018-05-27T10:57:24.923Z,6.90
2018-05-27T10:58:24.977Z,7.10
2018-05-27T10:59:25.010Z,7.30
2018-05-27T11:00:25.057Z,7.10
2018-05-27T11:01:25.100Z,7.20
2018-05-27T11:02:25.145Z,7.40
2018-05-27T11:03:25.197Z,8.60
2018-05-27T11:04:25.236Z,7.20
2018-05-27T11:05:25.279Z,7.10
2018-05-27T11:06:25.327Z,7.90
2018-05-27T11:07:25.375Z,6.70
2018-05-27T11:08:25.414Z,7.20
2018-05-27T11:09:25.475Z,7.50
2018-05-27T11:10:25.512Z,7.10
2018-05-27T11:12:25.595Z,7.40
2018-05-27T11:14:25.684Z,7.10
2018-05-27T11:15:25.735Z,7.30
2018-05-27T11:16:25.776Z,8.80
2018-05-27T11:17:25.821Z,7.70
2018-05-27T11:18:25.879Z,7.40
2018-05-27T11:19:25.911Z,7.50
2018-05-27T11:20:25.968Z,8.20
2018-05-27T11:21:26.002Z,7.20
2018-05-27T11:22:26.046Z,8.40
2018-05-27T11:23:26.094Z,8.40
2018-05-27T11:24:26.146Z,7.40
2018-05-27T11:25:26.195Z,7.70
2018-05-27T11:26:26.225Z,7.60
2018-05-27T11:27:26.271Z,6.60
2018-05-27T11:28:26.318Z,6.80
2018-05-27T11:29:26.369Z,7.90
2018-05-27T11:30:26.442Z,9.10
2018-05-27T11:31:26.454Z,6.80
2018-05-27T11:32:26.497Z,7.50
2018-05-27T11:33:26.542Z,7.00
2018-05-27T11:34:26.585Z,6.80
2018-05-27T11:35:26.648Z,7.30
2018-05-27T11:36:26.677Z,9.00
2018-05-27T11:37:26.724Z,7.10
2018-05-27T11:38:26.767Z,7.90
2018-05-27T11:39:26.813Z,7.40
2018-05-27T11:40:26.865Z,6.90
2018-05-27T11:41:26.905Z,7.30
2018-05-27T11:42:26.994Z,7.40
2018-05-27T11:43:26.994Z,8.50
2018-05-27T11:44:27.047Z,7.70
2018-05-27T11:45:27.084Z,7.00
2018-05-27T11:46:27.134Z,7.40
2018-05-27T11:47:27.177Z,7.40
2018-05-27T11:48:27.223Z,7.40
2018-05-27T11:49:27.269Z,7.10
2018-05-27T11:50:27.327Z,6.70
2018-05-27T11:51:27.362Z,7.90
2018-05-27T11:52:27.409Z,7.30
2018-05-27T11:53:27.448Z,8.00
2018-05-27T11:54:27.499Z,6.80
2018-05-27T11:55:27.551Z,7.30
2018-05-27T11:56:27.593Z,7.30
2018-05-27T11:57:27.630Z,7.40
2018-05-27T11:58:27.674Z,7.30
2018-05-27T11:59:27.722Z,7.00
2018-05-27T12:00:27.767Z,6.90
2018-05-27T12:01:27.812Z,7.50
2018-05-27T12:02:27.859Z,7.30
2018-05-27T12:03:27.903Z,7.20
2018-05-27T12:04:27.949Z,6.80
2018-05-27T12:05:28.001Z,7.60
2018-05-27T12:06:28.040Z,6.40
2018-05-27T12:07:28.088Z,6.60
2018-05-27T12:08:28.131Z,7.50
2018-05-27T12:09:28.345Z,7.30
2018-05-27T12:10:28.226Z,7.30
2018-05-27T12:11:28.269Z,7.80
2018-05-27T12:12:28.384Z,6.70
2018-05-27T12:13:28.366Z,6.70
2018-05-27T12:14:28.431Z,6.70
2018-05-27T12:15:28.451Z,7.00
2018-05-27T12:16:28.496Z,7.30
2018-05-27T12:17:28.548Z,6.70
2018-05-27T12:18:28.586Z,7.50
2018-05-27T12:19:28.647Z,7.10
2018-05-27T12:20:28.684Z,7.00
2018-05-27T12:21:28.734Z,6.60
2018-05-27T12:22:28.776Z,6.40
2018-05-27T12:23:28.820Z,6.40
2018-05-27T12:24:28.863Z,6.00
2018-05-27T12:25:28.907Z,6.60
2018-05-27T12:26:28.958Z,7.20
2018-05-27T12:27:29.001Z,6.50
2018-05-27T12:29:29.095Z,6.50
2018-05-27T12:30:29.139Z,6.80
2018-05-27T12:31:29.183Z,7.70
2018-05-27T12:32:29.231Z,6.60
2018-05-27T12:33:29.274Z,6.00
2018-05-27T12:34:29.322Z,6.10
2018-05-27T12:35:29.366Z,6.40
2018-05-27T12:36:29.430Z,6.00
2018-05-27T12:37:29.464Z,7.80
2018-05-27T12:38:29.512Z,5.90
2018-05-27T12:39:29.555Z,7.00
2018-05-27T12:40:29.600Z,5.90
2018-05-27T12:41:29.650Z,6.10
2018-05-27T12:42:29.703Z,7.50
2018-05-27T12:43:29.740Z,6.50
2018-05-27T12:44:29.788Z,6.50
2018-05-27T12:45:29.835Z,6.50
2018-05-27T12:46:29.887Z,6.80
2018-05-27T12:47:29.932Z,6.50
2018-05-27T12:48:29.975Z,8.80
2018-05-27T12:49:30.021Z,6.70
2018-05-27T12:50:30.113Z,7.10
2018-05-27T12:51:30.116Z,6.70
2018-05-27T12:52:30.166Z,6.70
2018-05-27T12:53:30.220Z,7.20
2018-05-27T12:54:30.258Z,6.60
2018-05-27T12:55:30.307Z,7.00
2018-05-27T12:56:30.365Z,7.10
2018-05-27T12:57:30.398Z,6.60
2018-05-27T12:58:30.444Z,7.20
2018-05-27T12:59:30.491Z,8.20
2018-05-27T13:00:30.540Z,7.80
2018-05-27T13:01:30.587Z,6.90
2018-05-27T13:02:30.658Z,6.90
2018-05-27T13:03:30.688Z,6.80
2018-05-27T13:04:30.731Z,6.90
2018-05-27T13:05:30.776Z,6.80
2018-05-27T13:06:30.845Z,6.50
2018-05-27T13:07:30.871Z,7.30
2018-05-27T13:08:30.922Z,6.50
2018-05-27T13:09:30.966Z,6.70
2018-05-27T13:10:31.138Z,6.50
2018-05-27T13:11:31.074Z,7.00
2018-05-27T13:13:31.155Z,7.00
2018-05-27T13:14:31.203Z,8.10
2018-05-27T13:15:31.252Z,7.00
2018-05-27T13:16:31.430Z,6.50
2018-05-27T13:17:31.348Z,6.90
2018-05-27T13:18:31.395Z,6.80
2018-05-27T13:19:31.444Z,6.70
2018-05-27T13:20:31.491Z,7.00
2018-05-27T13:21:31.536Z,6.70
2018-05-27T13:22:31.584Z,6.70